UNNT Airport Information

Runway Information
Runway 07 Length 11801 ft width 197 ft
Elevation 365 ft Threshold 0 ft Heading 81
Runway 25 Length 11801 ft Width 197 ft
Elevation 363 ft Threshold 0 ft Heading 261
Runway 16 Length 11818 ft width 148 ft
Elevation 362 ft Threshold 0 ft Heading 170
Runway 34 Length 11818 ft Width 148 ft
Elevation 368 ft Threshold 0 ft Heading 350
Airport Frequencies
Type APP Name NOVOSIBIRS Frequency 127.5 MHZ
Type ATIS Name NOVOSIBIRS Frequency 127.4 MHZ
Type GND Name NOVOSIBIRS Frequency 121.7 MHZ
Type PMSV Name NOVOSIBIRS Frequency 128.3 MHZ
Type RDR Name NOVOSIBIRS Frequency 122 MHZ
Type TWR Name NOVOSIBIRS Frequency 118.5 MHZ
Airport Navaids
Type NDB Name Tolmachevo Frequency 310 KHZ
Type VOR-DME Name Novosibirsk Frequency 113300 KHZ
Type NDB Name Tolmachevo Frequency 310 KHZ
Airport Weather Information & NOTAM
ADDS - METARS form results

(2017 UTC 23 April 2019)
Data provider http://aviationweather.gov/metar/data/
 
METAR text: UNNT 232000Z 00000MPS 8000 NSC 04/M04 Q1016 R25/090070 R34/090070 NOSIG RMK QFE752/1003
Conditions at: UNNT (TOLMACHEVO , RU) observed 2000 UTC 23 April 2019
Temperature: 4.0°C (39°F)
Dewpoint: -4.0°C (25°F) [RH = 56%]
Pressure (altimeter): 30.00 inches Hg (1016.0 mb)
Winds: calm
Visibility: 5 miles ( 8 km)
Ceiling: at least 12,000 feet AGL
Clouds: sky clear below 12,000 feet AGL
Weather: no significant weather observed at this time

METAR text: UNNT 231930Z 00000MPS 8000 NSC 03/M04 Q1016 R25/090070 R34/090070 NOSIG RMK QFE752/1003
Conditions at: UNNT (TOLMACHEVO , RU) observed 1930 UTC 23 April 2019
Temperature: 3.0°C (37°F)
Dewpoint: -4.0°C (25°F) [RH = 60%]
Pressure (altimeter): 30.00 inches Hg (1016.0 mb)
Winds: calm
Visibility: 5 miles ( 8 km)
Ceiling: at least 12,000 feet AGL
Clouds: sky clear below 12,000 feet AGL
Weather: no significant weather observed at this time

Forecast for: UNNT (TOLMACHEVO , RU)
Text: TAF UNNT 231700Z 2318/2418 24003G08MPS CAVOK
Forecast period: 1800 UTC 23 April 2019 to 0400 UTC 24 April 2019
Forecast type: FROM: standard forecast or significant change
Winds: from the WSW (240 degrees) at 7 MPH (6 knots; 3.1 m/s)
gusting to 18 MPH (16 knots; 8.2 m/s)
Visibility: 6 or more miles 10+ km)
Ceiling: unknown
Clouds: missing
Weather: NSW  (no significant weather)
Text: TEMPO 2318/2402 1500 FU
Forecast period: 1800 UTC 23 April 2019 to 0200 UTC 24 April 2019
Forecast type: TEMPORARY: The following changes expected for less than half the time period
Visibility: 0.93 miles (1.50 km)
Ceiling: unknown
Clouds: missing
Weather: FU  (smoke)
Text: BECMG 2404/2406 18006G12MPS
Forecast period: 0400 to 1800 UTC 24 April 2019
Forecast type: BECOMING: Conditions expected to become as follows by 0600 UTC 24 April 2019
Winds: from the S (180 degrees) at 14 MPH (12 knots; 6.2 m/s)
gusting to 26 MPH (23 knots; 11.8 m/s)
Visibility: 6 or more miles 10+ km)
Ceiling: unknown
Clouds: missing
Weather: NSW  (no significant weather)